createdAt,value
2018-12-14T00:00:16.867Z,19.70
2018-12-14T00:03:27.479Z,18.60
2018-12-14T00:06:36.552Z,18.87
2018-12-14T00:09:48.646Z,17.57
2018-12-14T00:12:57.587Z,19.87
2018-12-14T00:16:08.624Z,21.33
2018-12-14T00:19:12.020Z,18.50
2018-12-14T00:22:20.791Z,19.20
2018-12-14T00:25:31.652Z,21.17
2018-12-14T00:28:40.793Z,14.97
2018-12-14T00:31:51.768Z,17.37
2018-12-14T00:35:04.288Z,17.40
2018-12-14T00:38:13.303Z,17.27
2018-12-14T00:41:25.375Z,19.13
2018-12-14T00:44:37.532Z,19.07
2018-12-14T00:47:45.823Z,17.77
2018-12-14T00:50:56.799Z,19.77
2018-12-14T00:54:07.800Z,17.87
2018-12-14T00:57:16.225Z,17.13
2018-12-14T01:00:28.459Z,20.17
2018-12-14T01:03:37.532Z,19.67
2018-12-14T01:06:46.416Z,19.97
2018-12-14T01:09:54.560Z,18.17
2018-12-14T01:13:06.603Z,20.00
2018-12-14T01:16:18.884Z,21.90
2018-12-14T01:19:27.888Z,18.87
2018-12-14T01:22:36.116Z,18.20
2018-12-14T01:25:47.033Z,21.60
2018-12-14T01:28:51.247Z,22.77
2018-12-14T01:32:01.900Z,21.60
2018-12-14T01:35:12.775Z,17.87
2018-12-14T01:38:21.632Z,18.37
2018-12-14T01:41:30.707Z,21.20
2018-12-14T01:44:38.988Z,21.73
2018-12-14T01:47:47.351Z,20.53
2018-12-14T01:50:59.407Z,23.97
2018-12-14T01:54:11.534Z,20.10
2018-12-14T01:57:20.603Z,23.00
2018-12-14T02:00:32.635Z,24.50
2018-12-14T02:03:43.599Z,23.30
2018-12-14T02:06:51.876Z,25.00
2018-12-14T02:10:02.687Z,22.27
2018-12-14T02:13:13.545Z,20.63
2018-12-14T02:16:25.679Z,23.23
2018-12-14T02:19:33.883Z,21.13
2018-12-14T02:22:42.842Z,15.97
2018-12-14T02:25:53.572Z,17.83
2018-12-14T02:29:02.541Z,20.33
2018-12-14T02:32:13.096Z,15.80
2018-12-14T02:35:22.149Z,15.70
2018-12-14T02:38:31.117Z,16.17
2018-12-14T02:41:40.191Z,15.47
2018-12-14T02:44:51.044Z,12.47
2018-12-14T02:47:59.964Z,14.13
2018-12-14T02:51:08.926Z,14.70
2018-12-14T02:54:19.557Z,12.23
2018-12-14T02:57:23.812Z,9.93
2018-12-14T03:00:32.692Z,11.60
2018-12-14T03:03:43.465Z,11.67
2018-12-14T03:06:52.580Z,12.33
2018-12-14T03:10:03.856Z,12.67
2018-12-14T03:13:14.328Z,12.17
2018-12-14T03:16:25.079Z,11.33
2018-12-14T03:19:37.189Z,11.73
2018-12-14T03:22:46.118Z,12.40
2018-12-14T03:25:56.843Z,12.37
2018-12-14T03:29:01.014Z,12.23
2018-12-14T03:32:11.855Z,13.23
2018-12-14T03:35:20.133Z,11.33
2018-12-14T03:38:24.137Z,15.17
2018-12-14T03:41:32.888Z,10.63
2018-12-14T03:44:41.928Z,10.20
2018-12-14T03:47:50.985Z,13.40
2018-12-14T03:50:59.896Z,11.53
2018-12-14T03:54:10.724Z,13.83
2018-12-14T03:57:19.721Z,12.90
2018-12-14T04:00:29.106Z,15.80
2018-12-14T04:03:37.517Z,15.97
2018-12-14T04:06:41.696Z,14.87
2018-12-14T04:09:52.436Z,18.13
2018-12-14T04:13:03.316Z,17.23
2018-12-14T04:16:12.309Z,16.60
2018-12-14T04:19:21.185Z,17.10
2018-12-14T04:22:32.112Z,16.10
2018-12-14T04:25:41.177Z,15.67
2018-12-14T04:28:44.690Z,16.80
2018-12-14T04:31:53.432Z,17.80
2018-12-14T04:35:04.240Z,15.87
2018-12-14T04:38:13.297Z,15.97
2018-12-14T04:41:21.488Z,16.47
2018-12-14T04:44:30.528Z,15.20
2018-12-14T04:47:38.941Z,15.63
2018-12-14T04:50:51.005Z,14.83
2018-12-14T04:54:03.158Z,14.53
2018-12-14T04:57:06.511Z,15.83
2018-12-14T05:00:17.264Z,16.67
2018-12-14T05:03:28.128Z,16.17
2018-12-14T05:06:39.118Z,14.97
2018-12-14T05:09:49.995Z,15.07
2018-12-14T05:13:00.834Z,18.47
2018-12-14T05:16:09.088Z,16.50
2018-12-14T05:19:17.991Z,15.03
2018-12-14T05:22:30.120Z,17.33
2018-12-14T05:25:41.102Z,22.77
2018-12-14T05:28:50.156Z,15.53
2018-12-14T05:31:58.341Z,17.30
2018-12-14T05:35:09.292Z,16.10
2018-12-14T05:38:18.303Z,15.90
2018-12-14T05:41:29.292Z,14.00
2018-12-14T05:44:40.253Z,17.37
2018-12-14T05:47:49.097Z,13.67
2018-12-14T05:51:01.304Z,13.50
2018-12-14T05:54:10.355Z,14.23
2018-12-14T05:57:19.348Z,14.63
2018-12-14T06:00:28.467Z,15.70
2018-12-14T06:03:39.470Z,15.60
2018-12-14T06:06:47.901Z,13.77
2018-12-14T06:09:58.814Z,14.57
2018-12-14T06:13:09.768Z,17.70
2018-12-14T06:16:22.129Z,14.00
2018-12-14T06:19:25.409Z,14.73
2018-12-14T06:22:36.332Z,14.67
2018-12-14T06:25:47.198Z,14.00
2018-12-14T06:28:55.375Z,14.93
2018-12-14T06:32:07.480Z,14.63
2018-12-14T06:35:15.659Z,16.60
2018-12-14T06:38:24.638Z,15.57
2018-12-14T06:41:35.652Z,15.43
2018-12-14T06:44:47.812Z,16.20
2018-12-14T06:47:52.022Z,17.57
2018-12-14T06:51:00.908Z,16.10
2018-12-14T06:54:09.767Z,15.73
2018-12-14T06:57:14.015Z,16.33
2018-12-14T07:00:22.704Z,16.97
2018-12-14T07:03:33.515Z,16.63
2018-12-14T07:06:42.651Z,17.63
2018-12-14T07:09:54.807Z,15.30
2018-12-14T07:13:03.936Z,15.43
2018-12-14T07:16:13.988Z,16.50
2018-12-14T07:19:18.100Z,17.83
2018-12-14T07:22:30.220Z,17.67
2018-12-14T07:25:41.129Z,17.37
2018-12-14T07:28:50.140Z,18.33
2018-12-14T07:31:58.685Z,17.67
2018-12-14T07:35:07.815Z,16.57
2018-12-14T07:38:16.787Z,15.57
2018-12-14T07:41:28.996Z,15.00
2018-12-14T07:44:38.112Z,15.93
2018-12-14T07:47:46.852Z,15.83
2018-12-14T07:50:55.858Z,17.97
2018-12-14T07:54:06.704Z,17.37
2018-12-14T07:57:14.980Z,16.40
2018-12-14T08:00:27.024Z,17.20
2018-12-14T08:03:39.185Z,18.13
2018-12-14T08:06:47.548Z,17.87
2018-12-14T08:09:59.717Z,18.30
2018-12-14T08:13:10.691Z,18.33
2018-12-14T08:16:18.908Z,19.00
2018-12-14T08:19:27.866Z,18.93
2018-12-14T08:22:36.908Z,17.17
2018-12-14T08:25:45.963Z,18.67
2018-12-14T08:28:55.036Z,17.60
2018-12-14T08:32:07.097Z,15.10
2018-12-14T08:35:17.891Z,16.90
2018-12-14T08:38:26.972Z,17.37
2018-12-14T08:41:38.051Z,18.63
2018-12-14T08:44:50.685Z,16.27
2018-12-14T08:47:59.196Z,17.30
2018-12-14T08:51:09.884Z,14.57
2018-12-14T08:54:24.132Z,16.13
2018-12-14T08:57:27.420Z,18.07
2018-12-14T09:00:38.188Z,17.93
2018-12-14T09:03:50.236Z,18.93
2018-12-14T09:06:53.616Z,19.13
2018-12-14T09:10:01.802Z,18.43
2018-12-14T09:13:12.748Z,19.50
2018-12-14T09:16:21.856Z,18.10
2018-12-14T09:19:26.214Z,18.33
2018-12-14T09:22:35.054Z,18.77
2018-12-14T09:25:47.132Z,17.70
2018-12-14T09:28:51.332Z,21.17
2018-12-14T09:32:03.500Z,20.23
2018-12-14T09:35:14.426Z,21.67
2018-12-14T09:38:22.696Z,19.03
2018-12-14T09:41:33.741Z,18.90
2018-12-14T09:44:44.545Z,20.07
2018-12-14T09:47:47.944Z,22.80
2018-12-14T09:50:56.822Z,19.43
2018-12-14T09:54:07.668Z,22.83
2018-12-14T09:57:13.064Z,19.07
2018-12-14T10:00:23.924Z,20.00
2018-12-14T10:03:36.295Z,20.17
2018-12-14T10:06:45.108Z,21.17
2018-12-14T10:09:53.375Z,19.77
2018-12-14T10:13:05.491Z,18.83
2018-12-14T10:16:17.521Z,20.80
2018-12-14T10:19:25.813Z,21.30
2018-12-14T10:22:41.485Z,19.60
2018-12-14T10:25:49.689Z,21.57
2018-12-14T10:28:58.848Z,19.47
2018-12-14T10:32:07.781Z,21.43
2018-12-14T10:35:15.979Z,20.60
2018-12-14T10:38:24.938Z,22.23
2018-12-14T10:41:33.165Z,19.37
2018-12-14T10:44:45.311Z,20.33
2018-12-14T10:47:53.468Z,21.50
2018-12-14T10:51:04.391Z,22.80
2018-12-14T10:54:15.350Z,23.50
2018-12-14T10:57:19.593Z,21.20
2018-12-14T11:00:36.147Z,21.63
2018-12-14T11:03:47.124Z,22.03
2018-12-14T11:06:55.971Z,21.83
2018-12-14T11:10:05.420Z,21.60
2018-12-14T11:13:17.668Z,21.43
2018-12-14T11:16:26.587Z,21.40
2018-12-14T11:19:35.548Z,20.73
2018-12-14T11:22:44.601Z,22.90
2018-12-14T11:25:56.710Z,23.80
2018-12-14T11:29:05.681Z,22.77
2018-12-14T11:32:14.805Z,19.77
2018-12-14T11:35:25.805Z,22.00
2018-12-14T11:38:29.973Z,21.83
2018-12-14T11:41:38.852Z,24.50
2018-12-14T11:44:47.746Z,23.13
2018-12-14T11:47:56.828Z,21.30
2018-12-14T11:51:08.206Z,22.50
2018-12-14T11:54:22.759Z,20.57
2018-12-14T11:57:26.147Z,19.60
2018-12-14T12:00:38.236Z,20.80
2018-12-14T12:03:48.193Z,22.87
2018-12-14T12:06:57.120Z,30.67
2018-12-14T12:10:09.224Z,25.60
2018-12-14T12:13:18.224Z,22.33
2018-12-14T12:16:30.372Z,20.60
2018-12-14T12:19:38.728Z,23.80
2018-12-14T12:22:49.584Z,27.80
2018-12-14T12:26:00.533Z,26.87
2018-12-14T12:29:08.740Z,25.50
2018-12-14T12:32:20.894Z,23.63
2018-12-14T12:35:31.836Z,30.93
2018-12-14T12:38:40.960Z,23.70
2018-12-14T12:41:50.056Z,27.80
2018-12-14T12:45:01.022Z,27.73
2018-12-14T12:48:09.960Z,24.47
2018-12-14T12:51:22.224Z,24.23
2018-12-14T12:54:33.015Z,27.80
2018-12-14T12:57:42.000Z,25.50
2018-12-14T13:00:52.990Z,23.70
2018-12-14T13:04:06.225Z,23.70
2018-12-14T13:07:15.196Z,23.73
2018-12-14T13:10:26.096Z,25.57
2018-12-14T13:13:36.861Z,26.23
2018-12-14T13:16:45.149Z,26.97
2018-12-14T13:19:54.145Z,21.73
2018-12-14T13:23:03.215Z,24.33
2018-12-14T13:26:14.140Z,25.13
2018-12-14T13:29:18.406Z,24.50
2018-12-14T13:32:28.995Z,22.30
2018-12-14T13:35:39.900Z,22.83
2018-12-14T13:38:43.388Z,27.83
2018-12-14T13:41:55.232Z,22.53
2018-12-14T13:45:06.284Z,26.23
2018-12-14T13:48:10.390Z,25.67
2018-12-14T13:51:21.081Z,23.27
2018-12-14T13:54:33.422Z,22.60
2018-12-14T13:57:36.757Z,23.07
2018-12-14T14:00:50.219Z,25.33
2018-12-14T14:04:00.976Z,23.07
2018-12-14T14:07:09.880Z,23.90
2018-12-14T14:10:20.853Z,24.33
2018-12-14T14:13:29.817Z,26.30
2018-12-14T14:16:38.064Z,22.70
2018-12-14T14:19:46.580Z,24.07
2018-12-14T14:22:59.002Z,23.77
2018-12-14T14:26:08.068Z,20.60
2018-12-14T14:29:16.239Z,22.73
2018-12-14T14:32:27.236Z,21.07
2018-12-14T14:35:35.397Z,21.60
2018-12-14T14:38:44.441Z,27.97
2018-12-14T14:41:55.236Z,21.30
2018-12-14T14:45:05.937Z,22.10
2018-12-14T14:48:14.107Z,22.87
2018-12-14T14:51:25.284Z,23.03
2018-12-14T14:54:39.886Z,21.83
2018-12-14T14:57:41.633Z,23.43
2018-12-14T15:00:53.956Z,25.17
2018-12-14T15:04:04.938Z,23.07
2018-12-14T15:07:09.136Z,24.57
2018-12-14T15:10:17.927Z,23.57
2018-12-14T15:13:28.807Z,20.30
2018-12-14T15:16:38.708Z,24.13
2018-12-14T15:19:46.878Z,24.87
2018-12-14T15:22:55.651Z,25.70
2018-12-14T15:26:04.676Z,24.80
2018-12-14T15:29:08.980Z,24.83
2018-12-14T15:32:19.862Z,23.70
2018-12-14T15:35:30.860Z,23.80
2018-12-14T15:38:35.160Z,25.33
2018-12-14T15:41:43.837Z,23.53
2018-12-14T15:44:54.611Z,26.03
2018-12-14T15:48:02.788Z,25.97
2018-12-14T15:51:11.647Z,27.30
2018-12-14T15:54:22.685Z,22.60
2018-12-14T15:57:25.963Z,25.40
2018-12-14T16:00:34.844Z,26.23
2018-12-14T16:03:45.897Z,27.60
2018-12-14T16:06:54.189Z,25.83
2018-12-14T16:10:04.000Z,22.87
2018-12-14T16:16:20.050Z,25.77
2018-12-14T16:19:28.964Z,24.60
2018-12-14T16:22:39.912Z,28.30
2018-12-14T16:25:50.973Z,24.63
2018-12-14T16:28:59.911Z,23.77
2018-12-14T16:32:10.764Z,24.63
2018-12-14T16:35:21.605Z,28.53
2018-12-14T16:38:24.900Z,26.30
2018-12-14T16:41:35.698Z,24.70
2018-12-14T16:44:47.920Z,22.23
2018-12-14T16:47:56.104Z,22.10
2018-12-14T16:51:05.116Z,24.10
2018-12-14T16:54:13.292Z,26.70
2018-12-14T16:57:22.312Z,21.90
2018-12-14T17:00:33.334Z,19.40
2018-12-14T17:03:44.312Z,19.60
2018-12-14T17:06:53.451Z,17.50
2018-12-14T17:10:05.319Z,19.70
2018-12-14T17:13:17.536Z,22.77
2018-12-14T17:16:30.666Z,16.67
2018-12-14T17:19:41.644Z,17.83
2018-12-14T17:22:52.720Z,16.80
2018-12-14T17:26:03.627Z,16.93
2018-12-14T17:29:07.124Z,16.43
2018-12-14T17:32:17.840Z,17.83
2018-12-14T17:35:28.680Z,17.77
2018-12-14T17:38:37.749Z,18.33
2018-12-14T17:41:48.764Z,12.73
2018-12-14T17:45:00.825Z,18.60
2018-12-14T17:48:09.891Z,18.77
2018-12-14T17:51:20.850Z,19.13
2018-12-14T17:54:31.898Z,16.07
2018-12-14T17:57:35.293Z,19.73
2018-12-14T18:00:46.166Z,17.43
2018-12-14T18:03:57.177Z,19.77
2018-12-14T18:07:10.184Z,18.17
2018-12-14T18:10:22.240Z,18.80
2018-12-14T18:13:34.367Z,18.93
2018-12-14T18:16:46.477Z,20.37
2018-12-14T18:19:54.901Z,19.33
2018-12-14T18:23:03.037Z,18.77
2018-12-14T18:26:13.880Z,18.27
2018-12-14T18:29:17.976Z,20.23
2018-12-14T18:32:26.779Z,17.63
2018-12-14T18:35:37.635Z,19.37
2018-12-14T18:38:41.782Z,18.63
2018-12-14T18:41:50.581Z,17.67
2018-12-14T18:44:59.505Z,21.17
2018-12-14T18:48:03.627Z,22.43
2018-12-14T18:51:12.260Z,18.80
2018-12-14T18:54:22.155Z,19.30
2018-12-14T18:57:31.173Z,20.27
2018-12-14T19:00:40.257Z,17.90
2018-12-14T19:03:48.420Z,17.47
2018-12-14T19:06:56.948Z,20.63
2018-12-14T19:10:07.591Z,20.20
2018-12-14T19:13:18.540Z,20.30
2018-12-14T19:16:31.117Z,18.97
2018-12-14T19:19:43.672Z,18.80
2018-12-14T19:22:55.754Z,19.23
2018-12-14T19:26:06.616Z,23.10
2018-12-14T19:29:15.101Z,19.37
2018-12-14T19:32:25.928Z,19.73
2018-12-14T19:35:34.983Z,20.77
2018-12-14T19:38:44.079Z,21.63
2018-12-14T19:41:54.848Z,22.77
2018-12-14T19:45:06.748Z,21.60
2018-12-14T19:48:15.034Z,20.30
2018-12-14T19:51:26.036Z,20.10
2018-12-14T19:54:38.270Z,22.87
2018-12-14T19:57:52.076Z,22.93
2018-12-14T20:01:04.265Z,23.83
2018-12-14T20:04:16.424Z,24.57
2018-12-14T20:07:24.824Z,24.20
2018-12-14T20:10:35.848Z,28.10
2018-12-14T20:13:44.824Z,25.80
2018-12-14T20:16:48.124Z,25.83
2018-12-14T20:19:56.956Z,27.00
2018-12-14T20:23:06.044Z,23.93
2018-12-14T20:26:18.172Z,24.57
2018-12-14T20:29:26.509Z,23.00
2018-12-14T20:32:34.695Z,23.80
2018-12-14T20:35:46.745Z,24.50
2018-12-14T20:38:55.614Z,27.40
2018-12-14T20:42:06.418Z,23.40
2018-12-14T20:45:15.403Z,24.97
2018-12-14T20:48:19.608Z,26.47
2018-12-14T20:51:30.379Z,27.77
2018-12-14T20:54:42.407Z,27.60
2018-12-14T20:57:51.492Z,24.73
2018-12-14T21:01:03.532Z,27.00
2018-12-14T21:04:15.690Z,23.27
2018-12-14T21:07:19.696Z,25.13
2018-12-14T21:10:30.402Z,22.57
2018-12-14T21:13:39.475Z,25.83
2018-12-14T21:16:47.651Z,31.07
2018-12-14T21:19:55.828Z,25.97
2018-12-14T21:23:04.066Z,31.70
2018-12-14T21:26:16.784Z,29.77
2018-12-14T21:29:25.049Z,26.33
2018-12-14T21:32:36.064Z,29.53
2018-12-14T21:35:47.038Z,24.27
2018-12-14T21:38:56.164Z,29.37
2018-12-14T21:42:08.352Z,28.97
2018-12-14T21:45:16.624Z,27.27
2018-12-14T21:48:25.717Z,25.80
2018-12-14T21:51:36.641Z,27.23
2018-12-14T21:54:47.619Z,25.63
2018-12-14T21:57:55.872Z,25.30
2018-12-14T22:01:05.080Z,25.93
2018-12-14T22:04:14.061Z,22.50
2018-12-14T22:07:23.087Z,23.93
2018-12-14T22:10:35.148Z,23.80
2018-12-14T22:13:44.240Z,24.80
2018-12-14T22:16:53.043Z,26.90
2018-12-14T22:20:04.300Z,26.50
2018-12-14T22:23:14.972Z,24.60
2018-12-14T22:26:28.070Z,25.57
2018-12-14T22:29:36.561Z,25.83
2018-12-14T22:32:47.455Z,24.63
2018-12-14T22:35:58.456Z,26.83
2018-12-14T22:39:07.641Z,25.47
2018-12-14T22:42:18.473Z,28.60
2018-12-14T22:45:26.759Z,30.53
2018-12-14T22:48:35.695Z,30.20
2018-12-14T22:51:47.828Z,29.10
2018-12-14T22:54:55.987Z,28.17
2018-12-14T22:58:04.992Z,28.17
2018-12-14T23:01:13.205Z,33.27
2018-12-14T23:04:24.156Z,30.57
2018-12-14T23:07:27.459Z,33.57
2018-12-14T23:10:36.405Z,36.87
2018-12-14T23:13:48.711Z,31.70
2018-12-14T23:16:57.588Z,32.40
2018-12-14T23:20:09.630Z,30.30
2018-12-14T23:23:18.739Z,36.03
2018-12-14T23:26:27.748Z,28.33
2018-12-14T23:29:31.922Z,29.27
2018-12-14T23:32:42.714Z,30.13
2018-12-14T23:35:54.754Z,32.17
2018-12-14T23:39:04.392Z,31.03
2018-12-14T23:42:12.868Z,31.23
2018-12-14T23:45:23.761Z,31.00
2018-12-14T23:48:32.019Z,32.63
2018-12-14T23:51:41.144Z,28.27
2018-12-14T23:54:49.282Z,25.67
2018-12-14T23:57:58.253Z,30.43
